sensor_id;sensor_type;location;lat;lon;timestamp;P1;durP1;ratioP1;P2;durP2;ratioP2
32918;SDS011;19280;42.646;21.150;2022-07-24T00:01:13;15.65;;;6.53;;
32918;SDS011;19280;42.646;21.150;2022-07-24T00:03:39;14.85;;;6.22;;
32918;SDS011;19280;42.646;21.150;2022-07-24T00:06:06;14.05;;;6.57;;
32918;SDS011;19280;42.646;21.150;2022-07-24T00:08:33;12.40;;;6.63;;
32918;SDS011;19280;42.646;21.150;2022-07-24T00:11:00;11.10;;;5.50;;
32918;SDS011;19280;42.646;21.150;2022-07-24T00:13:27;11.35;;;6.20;;
32918;SDS011;19280;42.646;21.150;2022-07-24T00:15:54;12.15;;;5.90;;
32918;SDS011;19280;42.646;21.150;2022-07-24T00:18:21;16.23;;;6.28;;
32918;SDS011;19280;42.646;21.150;2022-07-24T00:20:47;11.27;;;6.40;;
32918;SDS011;19280;42.646;21.150;2022-07-24T00:23:14;13.63;;;6.50;;
32918;SDS011;19280;42.646;21.150;2022-07-24T00:25:41;12.98;;;6.25;;
32918;SDS011;19280;42.646;21.150;2022-07-24T00:28:08;10.93;;;6.20;;
32918;SDS011;19280;42.646;21.150;2022-07-24T00:30:35;17.10;;;6.20;;
32918;SDS011;19280;42.646;21.150;2022-07-24T00:33:03;13.30;;;6.22;;
32918;SDS011;19280;42.646;21.150;2022-07-24T00:35:30;14.07;;;6.13;;
32918;SDS011;19280;42.646;21.150;2022-07-24T00:37:57;12.65;;;5.72;;
32918;SDS011;19280;42.646;21.150;2022-07-24T00:40:24;13.13;;;5.95;;
32918;SDS011;19280;42.646;21.150;2022-07-24T00:42:51;10.95;;;5.90;;
32918;SDS011;19280;42.646;21.150;2022-07-24T00:45:18;19.20;;;6.32;;
32918;SDS011;19280;42.646;21.150;2022-07-24T00:47:45;12.15;;;5.65;;
32918;SDS011;19280;42.646;21.150;2022-07-24T00:50:12;12.10;;;5.80;;
32918;SDS011;19280;42.646;21.150;2022-07-24T00:52:39;14.45;;;5.78;;
32918;SDS011;19280;42.646;21.150;2022-07-24T00:55:06;13.40;;;6.82;;
32918;SDS011;19280;42.646;21.150;2022-07-24T00:57:33;11.95;;;5.90;;
32918;SDS011;19280;42.646;21.150;2022-07-24T01:00:00;10.27;;;5.80;;
32918;SDS011;19280;42.646;21.150;2022-07-24T01:02:27;14.32;;;5.80;;
32918;SDS011;19280;42.646;21.150;2022-07-24T01:04:54;10.18;;;6.30;;
32918;SDS011;19280;42.646;21.150;2022-07-24T01:07:20;12.98;;;6.55;;
32918;SDS011;19280;42.646;21.150;2022-07-24T01:09:47;12.60;;;5.90;;
32918;SDS011;19280;42.646;21.150;2022-07-24T01:12:15;10.18;;;5.72;;
32918;SDS011;19280;42.646;21.150;2022-07-24T01:14:42;13.85;;;6.47;;
32918;SDS011;19280;42.646;21.150;2022-07-24T01:17:09;11.93;;;5.90;;
32918;SDS011;19280;42.646;21.150;2022-07-24T01:19:37;12.63;;;6.18;;
32918;SDS011;19280;42.646;21.150;2022-07-24T01:22:04;9.55;;;5.97;;
32918;SDS011;19280;42.646;21.150;2022-07-24T01:24:31;8.63;;;6.00;;
32918;SDS011;19280;42.646;21.150;2022-07-24T01:26:57;18.35;;;6.35;;
32918;SDS011;19280;42.646;21.150;2022-07-24T01:29:24;15.30;;;7.43;;
32918;SDS011;19280;42.646;21.150;2022-07-24T01:31:51;13.23;;;7.28;;
32918;SDS011;19280;42.646;21.150;2022-07-24T01:34:18;20.48;;;7.38;;
32918;SDS011;19280;42.646;21.150;2022-07-24T01:36:45;20.13;;;7.10;;
32918;SDS011;19280;42.646;21.150;2022-07-24T01:39:11;14.73;;;7.32;;
32918;SDS011;19280;42.646;21.150;2022-07-24T01:41:38;19.27;;;7.43;;
32918;SDS011;19280;42.646;21.150;2022-07-24T01:44:05;19.08;;;7.45;;
32918;SDS011;19280;42.646;21.150;2022-07-24T01:46:32;16.48;;;7.78;;
32918;SDS011;19280;42.646;21.150;2022-07-24T01:48:59;20.33;;;7.05;;
32918;SDS011;19280;42.646;21.150;2022-07-24T01:51:26;16.90;;;7.53;;
32918;SDS011;19280;42.646;21.150;2022-07-24T01:53:52;20.35;;;8.15;;
32918;SDS011;19280;42.646;21.150;2022-07-24T01:56:20;16.70;;;7.10;;
32918;SDS011;19280;42.646;21.150;2022-07-24T01:58:47;23.50;;;8.27;;
32918;SDS011;19280;42.646;21.150;2022-07-24T02:01:13;25.65;;;7.90;;
32918;SDS011;19280;42.646;21.150;2022-07-24T02:03:40;25.98;;;8.52;;
32918;SDS011;19280;42.646;21.150;2022-07-24T02:06:07;18.95;;;7.25;;
32918;SDS011;19280;42.646;21.150;2022-07-24T02:08:34;17.50;;;7.43;;
32918;SDS011;19280;42.646;21.150;2022-07-24T02:11:01;23.90;;;8.10;;
32918;SDS011;19280;42.646;21.150;2022-07-24T02:13:28;20.40;;;8.18;;
32918;SDS011;19280;42.646;21.150;2022-07-24T02:15:56;14.38;;;8.15;;
32918;SDS011;19280;42.646;21.150;2022-07-24T02:18:22;20.55;;;8.20;;
32918;SDS011;19280;42.646;21.150;2022-07-24T02:20:49;22.48;;;8.55;;
32918;SDS011;19280;42.646;21.150;2022-07-24T02:23:16;23.35;;;10.32;;
32918;SDS011;19280;42.646;21.150;2022-07-24T02:25:44;28.42;;;11.20;;
32918;SDS011;19280;42.646;21.150;2022-07-24T02:28:11;28.83;;;11.52;;
32918;SDS011;19280;42.646;21.150;2022-07-24T02:30:38;27.83;;;10.50;;
32918;SDS011;19280;42.646;21.150;2022-07-24T02:33:05;30.27;;;9.65;;
32918;SDS011;19280;42.646;21.150;2022-07-24T02:35:33;19.52;;;8.70;;
32918;SDS011;19280;42.646;21.150;2022-07-24T02:38:00;14.60;;;8.05;;
32918;SDS011;19280;42.646;21.150;2022-07-24T02:40:27;22.55;;;8.70;;
32918;SDS011;19280;42.646;21.150;2022-07-24T02:42:54;26.73;;;8.43;;
32918;SDS011;19280;42.646;21.150;2022-07-24T02:45:20;18.75;;;8.23;;
32918;SDS011;19280;42.646;21.150;2022-07-24T02:50:14;14.13;;;8.00;;
32918;SDS011;19280;42.646;21.150;2022-07-24T02:52:41;17.67;;;7.30;;
32918;SDS011;19280;42.646;21.150;2022-07-24T02:55:08;21.02;;;8.70;;
32918;SDS011;19280;42.646;21.150;2022-07-24T02:57:35;18.02;;;8.43;;
32918;SDS011;19280;42.646;21.150;2022-07-24T03:00:04;16.30;;;7.97;;
32918;SDS011;19280;42.646;21.150;2022-07-24T03:02:32;19.98;;;8.18;;
32918;SDS011;19280;42.646;21.150;2022-07-24T03:04:59;18.65;;;8.45;;
32918;SDS011;19280;42.646;21.150;2022-07-24T03:07:26;18.90;;;8.43;;
32918;SDS011;19280;42.646;21.150;2022-07-24T03:09:53;16.75;;;8.23;;
32918;SDS011;19280;42.646;21.150;2022-07-24T03:12:20;21.10;;;10.20;;
32918;SDS011;19280;42.646;21.150;2022-07-24T03:14:47;18.33;;;7.97;;
32918;SDS011;19280;42.646;21.150;2022-07-24T03:17:14;17.70;;;8.57;;
32918;SDS011;19280;42.646;21.150;2022-07-24T03:19:41;16.63;;;8.43;;
32918;SDS011;19280;42.646;21.150;2022-07-24T03:22:08;18.02;;;8.38;;
32918;SDS011;19280;42.646;21.150;2022-07-24T03:24:34;14.40;;;7.95;;
32918;SDS011;19280;42.646;21.150;2022-07-24T03:27:02;13.82;;;8.07;;
32918;SDS011;19280;42.646;21.150;2022-07-24T03:29:28;12.93;;;7.80;;
32918;SDS011;19280;42.646;21.150;2022-07-24T03:31:55;13.20;;;7.75;;
32918;SDS011;19280;42.646;21.150;2022-07-24T03:34:22;11.88;;;7.47;;
32918;SDS011;19280;42.646;21.150;2022-07-24T03:36:49;14.07;;;7.50;;
32918;SDS011;19280;42.646;21.150;2022-07-24T03:39:15;12.18;;;6.82;;
32918;SDS011;19280;42.646;21.150;2022-07-24T03:41:43;15.43;;;7.32;;
32918;SDS011;19280;42.646;21.150;2022-07-24T03:44:09;12.45;;;7.07;;
32918;SDS011;19280;42.646;21.150;2022-07-24T03:46:36;15.15;;;6.90;;
32918;SDS011;19280;42.646;21.150;2022-07-24T03:49:03;11.70;;;7.07;;
32918;SDS011;19280;42.646;21.150;2022-07-24T03:51:30;13.07;;;6.72;;
32918;SDS011;19280;42.646;21.150;2022-07-24T03:53:57;13.70;;;6.55;;
32918;SDS011;19280;42.646;21.150;2022-07-24T03:56:23;15.57;;;7.43;;
32918;SDS011;19280;42.646;21.150;2022-07-24T03:58:51;15.23;;;7.32;;
32918;SDS011;19280;42.646;21.150;2022-07-24T04:01:18;13.40;;;6.90;;
32918;SDS011;19280;42.646;21.150;2022-07-24T04:03:45;14.90;;;6.80;;
32918;SDS011;19280;42.646;21.150;2022-07-24T04:06:12;17.65;;;7.75;;
32918;SDS011;19280;42.646;21.150;2022-07-24T04:08:38;16.70;;;7.72;;
32918;SDS011;19280;42.646;21.150;2022-07-24T04:11:05;14.27;;;7.68;;
32918;SDS011;19280;42.646;21.150;2022-07-24T04:13:34;19.48;;;7.72;;
32918;SDS011;19280;42.646;21.150;2022-07-24T04:16:00;16.52;;;7.50;;
32918;SDS011;19280;42.646;21.150;2022-07-24T04:18:27;15.57;;;6.85;;
32918;SDS011;19280;42.646;21.150;2022-07-24T04:20:55;15.35;;;7.10;;
32918;SDS011;19280;42.646;21.150;2022-07-24T04:23:22;20.75;;;8.00;;
32918;SDS011;19280;42.646;21.150;2022-07-24T04:25:49;11.80;;;6.68;;
32918;SDS011;19280;42.646;21.150;2022-07-24T04:28:15;22.30;;;8.02;;
32918;SDS011;19280;42.646;21.150;2022-07-24T04:30:42;16.15;;;8.80;;
32918;SDS011;19280;42.646;21.150;2022-07-24T04:33:09;16.80;;;8.30;;
32918;SDS011;19280;42.646;21.150;2022-07-24T04:35:36;21.15;;;8.75;;
32918;SDS011;19280;42.646;21.150;2022-07-24T04:38:03;23.45;;;9.43;;
32918;SDS011;19280;42.646;21.150;2022-07-24T04:40:31;20.08;;;10.00;;
32918;SDS011;19280;42.646;21.150;2022-07-24T04:42:58;19.50;;;7.82;;
32918;SDS011;19280;42.646;21.150;2022-07-24T04:45:25;19.15;;;8.68;;
32918;SDS011;19280;42.646;21.150;2022-07-24T04:47:51;18.95;;;7.45;;
32918;SDS011;19280;42.646;21.150;2022-07-24T04:50:18;18.17;;;7.45;;
32918;SDS011;19280;42.646;21.150;2022-07-24T04:52:45;15.13;;;7.85;;
32918;SDS011;19280;42.646;21.150;2022-07-24T04:55:12;14.27;;;7.75;;
32918;SDS011;19280;42.646;21.150;2022-07-24T04:57:39;10.52;;;6.18;;
32918;SDS011;19280;42.646;21.150;2022-07-24T05:00:08;15.15;;;6.63;;
32918;SDS011;19280;42.646;21.150;2022-07-24T05:02:36;16.83;;;6.43;;
32918;SDS011;19280;42.646;21.150;2022-07-24T05:05:03;12.20;;;6.60;;
32918;SDS011;19280;42.646;21.150;2022-07-24T05:07:31;12.55;;;6.78;;
32918;SDS011;19280;42.646;21.150;2022-07-24T05:09:58;22.25;;;7.47;;
32918;SDS011;19280;42.646;21.150;2022-07-24T05:12:26;12.13;;;6.55;;
32918;SDS011;19280;42.646;21.150;2022-07-24T05:14:53;12.93;;;6.78;;
32918;SDS011;19280;42.646;21.150;2022-07-24T05:17:20;14.52;;;6.47;;
32918;SDS011;19280;42.646;21.150;2022-07-24T05:19:47;14.30;;;6.53;;
32918;SDS011;19280;42.646;21.150;2022-07-24T05:22:14;17.25;;;6.45;;
32918;SDS011;19280;42.646;21.150;2022-07-24T05:24:41;15.13;;;7.30;;
32918;SDS011;19280;42.646;21.150;2022-07-24T05:27:07;26.25;;;7.53;;
32918;SDS011;19280;42.646;21.150;2022-07-24T05:29:34;19.33;;;7.20;;
32918;SDS011;19280;42.646;21.150;2022-07-24T05:32:01;24.02;;;7.68;;
32918;SDS011;19280;42.646;21.150;2022-07-24T05:34:28;19.15;;;8.55;;
32918;SDS011;19280;42.646;21.150;2022-07-24T05:36:55;22.52;;;8.73;;
32918;SDS011;19280;42.646;21.150;2022-07-24T05:39:22;21.60;;;9.40;;
32918;SDS011;19280;42.646;21.150;2022-07-24T05:41:48;25.83;;;10.38;;
32918;SDS011;19280;42.646;21.150;2022-07-24T05:44:15;24.60;;;9.73;;
32918;SDS011;19280;42.646;21.150;2022-07-24T05:46:43;25.00;;;10.85;;
32918;SDS011;19280;42.646;21.150;2022-07-24T05:49:09;21.88;;;10.25;;
32918;SDS011;19280;42.646;21.150;2022-07-24T05:51:36;23.83;;;9.93;;
32918;SDS011;19280;42.646;21.150;2022-07-24T05:54:04;24.10;;;10.50;;
32918;SDS011;19280;42.646;21.150;2022-07-24T05:56:31;23.83;;;10.00;;
32918;SDS011;19280;42.646;21.150;2022-07-24T05:58:58;32.72;;;10.95;;
32918;SDS011;19280;42.646;21.150;2022-07-24T06:01:25;30.85;;;10.00;;
32918;SDS011;19280;42.646;21.150;2022-07-24T06:03:52;29.13;;;10.88;;
32918;SDS011;19280;42.646;21.150;2022-07-24T06:06:19;21.98;;;9.95;;
32918;SDS011;19280;42.646;21.150;2022-07-24T06:08:45;23.63;;;10.60;;
32918;SDS011;19280;42.646;21.150;2022-07-24T06:11:13;22.92;;;9.48;;
32918;SDS011;19280;42.646;21.150;2022-07-24T06:13:40;25.30;;;9.27;;
32918;SDS011;19280;42.646;21.150;2022-07-24T06:16:07;21.42;;;8.90;;
32918;SDS011;19280;42.646;21.150;2022-07-24T06:18:34;21.20;;;8.35;;
32918;SDS011;19280;42.646;21.150;2022-07-24T06:21:01;20.77;;;8.15;;
32918;SDS011;19280;42.646;21.150;2022-07-24T06:23:28;21.65;;;7.95;;
32918;SDS011;19280;42.646;21.150;2022-07-24T06:25:55;19.10;;;8.90;;
32918;SDS011;19280;42.646;21.150;2022-07-24T06:28:22;23.75;;;8.20;;
32918;SDS011;19280;42.646;21.150;2022-07-24T06:30:48;18.33;;;8.05;;
32918;SDS011;19280;42.646;21.150;2022-07-24T06:33:15;21.90;;;8.85;;
32918;SDS011;19280;42.646;21.150;2022-07-24T06:35:43;31.63;;;9.38;;
32918;SDS011;19280;42.646;21.150;2022-07-24T06:38:09;30.02;;;8.95;;
32918;SDS011;19280;42.646;21.150;2022-07-24T06:40:38;19.90;;;8.82;;
32918;SDS011;19280;42.646;21.150;2022-07-24T06:43:05;22.13;;;7.00;;
32918;SDS011;19280;42.646;21.150;2022-07-24T06:45:32;15.13;;;7.20;;
32918;SDS011;19280;42.646;21.150;2022-07-24T06:47:59;17.60;;;7.68;;
32918;SDS011;19280;42.646;21.150;2022-07-24T06:50:27;17.83;;;6.75;;
32918;SDS011;19280;42.646;21.150;2022-07-24T06:52:54;18.50;;;7.03;;
32918;SDS011;19280;42.646;21.150;2022-07-24T06:55:21;13.63;;;6.85;;
32918;SDS011;19280;42.646;21.150;2022-07-24T06:57:48;20.20;;;7.28;;
32918;SDS011;19280;42.646;21.150;2022-07-24T07:00:15;17.55;;;7.40;;
32918;SDS011;19280;42.646;21.150;2022-07-24T07:02:42;22.17;;;6.93;;
32918;SDS011;19280;42.646;21.150;2022-07-24T07:05:09;12.45;;;7.15;;
32918;SDS011;19280;42.646;21.150;2022-07-24T07:07:36;11.77;;;6.75;;
32918;SDS011;19280;42.646;21.150;2022-07-24T07:10:04;14.65;;;6.50;;
32918;SDS011;19280;42.646;21.150;2022-07-24T07:12:31;13.02;;;6.65;;
32918;SDS011;19280;42.646;21.150;2022-07-24T07:14:59;13.38;;;6.63;;
32918;SDS011;19280;42.646;21.150;2022-07-24T07:17:25;14.52;;;7.20;;
32918;SDS011;19280;42.646;21.150;2022-07-24T07:19:52;18.40;;;7.25;;
32918;SDS011;19280;42.646;21.150;2022-07-24T07:22:20;12.82;;;7.40;;
32918;SDS011;19280;42.646;21.150;2022-07-24T07:24:47;20.63;;;7.55;;
32918;SDS011;19280;42.646;21.150;2022-07-24T07:27:13;13.25;;;7.20;;
32918;SDS011;19280;42.646;21.150;2022-07-24T07:29:40;15.80;;;7.63;;
32918;SDS011;19280;42.646;21.150;2022-07-24T07:32:07;22.00;;;7.68;;
32918;SDS011;19280;42.646;21.150;2022-07-24T07:34:35;14.65;;;7.03;;
32918;SDS011;19280;42.646;21.150;2022-07-24T07:37:02;17.42;;;7.38;;
32918;SDS011;19280;42.646;21.150;2022-07-24T07:39:30;15.75;;;6.40;;
32918;SDS011;19280;42.646;21.150;2022-07-24T07:41:57;15.70;;;6.65;;
32918;SDS011;19280;42.646;21.150;2022-07-24T07:44:24;18.80;;;7.28;;
32918;SDS011;19280;42.646;21.150;2022-07-24T07:46:51;14.70;;;6.68;;
32918;SDS011;19280;42.646;21.150;2022-07-24T07:49:18;16.58;;;6.40;;
32918;SDS011;19280;42.646;21.150;2022-07-24T07:51:45;15.13;;;6.40;;
32918;SDS011;19280;42.646;21.150;2022-07-24T07:54:13;18.20;;;6.32;;
32918;SDS011;19280;42.646;21.150;2022-07-24T07:56:40;17.15;;;6.78;;
32918;SDS011;19280;42.646;21.150;2022-07-24T07:59:09;14.13;;;5.93;;
32918;SDS011;19280;42.646;21.150;2022-07-24T08:01:36;17.00;;;6.07;;
32918;SDS011;19280;42.646;21.150;2022-07-24T08:04:03;20.77;;;7.10;;
32918;SDS011;19280;42.646;21.150;2022-07-24T08:06:30;30.67;;;8.73;;
32918;SDS011;19280;42.646;21.150;2022-07-24T08:08:58;21.42;;;7.55;;
32918;SDS011;19280;42.646;21.150;2022-07-24T08:11:25;22.30;;;7.47;;
32918;SDS011;19280;42.646;21.150;2022-07-24T08:13:52;21.60;;;7.60;;
32918;SDS011;19280;42.646;21.150;2022-07-24T08:16:18;20.33;;;8.55;;
32918;SDS011;19280;42.646;21.150;2022-07-24T08:18:45;18.25;;;8.02;;
32918;SDS011;19280;42.646;21.150;2022-07-24T08:21:12;24.50;;;9.05;;
32918;SDS011;19280;42.646;21.150;2022-07-24T08:23:42;27.20;;;8.50;;
32918;SDS011;19280;42.646;21.150;2022-07-24T08:26:09;20.05;;;7.13;;
32918;SDS011;19280;42.646;21.150;2022-07-24T08:28:37;15.88;;;6.93;;
32918;SDS011;19280;42.646;21.150;2022-07-24T08:31:05;18.85;;;6.32;;
32918;SDS011;19280;42.646;21.150;2022-07-24T08:33:31;12.25;;;5.95;;
32918;SDS011;19280;42.646;21.150;2022-07-24T08:35:58;24.05;;;6.97;;
32918;SDS011;19280;42.646;21.150;2022-07-24T08:38:26;11.75;;;5.32;;
32918;SDS011;19280;42.646;21.150;2022-07-24T08:40:53;10.70;;;4.85;;
32918;SDS011;19280;42.646;21.150;2022-07-24T08:43:21;13.00;;;5.28;;
32918;SDS011;19280;42.646;21.150;2022-07-24T08:45:48;9.85;;;5.22;;
32918;SDS011;19280;42.646;21.150;2022-07-24T08:48:16;11.43;;;5.35;;
32918;SDS011;19280;42.646;21.150;2022-07-24T08:50:45;13.18;;;5.53;;
32918;SDS011;19280;42.646;21.150;2022-07-24T08:53:12;9.27;;;5.15;;
32918;SDS011;19280;42.646;21.150;2022-07-24T08:55:40;10.35;;;5.55;;
32918;SDS011;19280;42.646;21.150;2022-07-24T08:58:07;10.50;;;6.43;;
32918;SDS011;19280;42.646;21.150;2022-07-24T09:00:33;13.13;;;5.75;;
32918;SDS011;19280;42.646;21.150;2022-07-24T09:03:00;9.48;;;5.30;;
32918;SDS011;19280;42.646;21.150;2022-07-24T09:05:27;8.20;;;6.03;;
32918;SDS011;19280;42.646;21.150;2022-07-24T09:08:10;6.72;;;4.93;;
32918;SDS011;19280;42.646;21.150;2022-07-24T09:10:37;11.68;;;5.55;;
32918;SDS011;19280;42.646;21.150;2022-07-24T09:13:12;9.80;;;6.13;;
32918;SDS011;19280;42.646;21.150;2022-07-24T09:15:44;12.80;;;6.60;;
32918;SDS011;19280;42.646;21.150;2022-07-24T09:18:24;12.65;;;6.13;;
32918;SDS011;19280;42.646;21.150;2022-07-24T09:20:51;8.88;;;6.20;;
32918;SDS011;19280;42.646;21.150;2022-07-24T09:23:19;14.05;;;6.53;;
32918;SDS011;19280;42.646;21.150;2022-07-24T09:25:50;16.05;;;6.68;;
32918;SDS011;19280;42.646;21.150;2022-07-24T09:28:17;12.63;;;5.97;;
32918;SDS011;19280;42.646;21.150;2022-07-24T09:30:45;9.30;;;5.72;;
32918;SDS011;19280;42.646;21.150;2022-07-24T09:33:15;9.13;;;5.38;;
32918;SDS011;19280;42.646;21.150;2022-07-24T09:35:45;7.65;;;5.25;;
32918;SDS011;19280;42.646;21.150;2022-07-24T09:38:20;8.48;;;5.40;;
32918;SDS011;19280;42.646;21.150;2022-07-24T09:40:49;11.82;;;5.40;;
32918;SDS011;19280;42.646;21.150;2022-07-24T09:48:34;10.27;;;6.35;;
32918;SDS011;19280;42.646;21.150;2022-07-24T09:51:11;10.43;;;5.88;;
32918;SDS011;19280;42.646;21.150;2022-07-24T09:53:39;9.05;;;5.00;;
32918;SDS011;19280;42.646;21.150;2022-07-24T09:56:07;12.00;;;5.60;;
32918;SDS011;19280;42.646;21.150;2022-07-24T09:58:39;8.25;;;5.05;;
32918;SDS011;19280;42.646;21.150;2022-07-24T10:01:06;9.13;;;5.38;;
32918;SDS011;19280;42.646;21.150;2022-07-24T10:03:35;10.55;;;5.53;;
32918;SDS011;19280;42.646;21.150;2022-07-24T10:06:04;10.77;;;4.82;;
32918;SDS011;19280;42.646;21.150;2022-07-24T10:08:32;8.77;;;5.30;;
32918;SDS011;19280;42.646;21.150;2022-07-24T10:11:00;6.53;;;4.93;;
32918;SDS011;19280;42.646;21.150;2022-07-24T10:13:28;7.90;;;5.70;;
32918;SDS011;19280;42.646;21.150;2022-07-24T10:21:17;7.68;;;5.70;;
32918;SDS011;19280;42.646;21.150;2022-07-24T10:24:04;13.52;;;7.07;;
32918;SDS011;19280;42.646;21.150;2022-07-24T10:31:43;6.72;;;5.45;;
32918;SDS011;19280;42.646;21.150;2022-07-24T10:34:33;10.48;;;6.13;;
32918;SDS011;19280;42.646;21.150;2022-07-24T10:42:21;11.93;;;5.30;;
32918;SDS011;19280;42.646;21.150;2022-07-24T10:47:34;11.68;;;5.95;;
32918;SDS011;19280;42.646;21.150;2022-07-24T10:50:01;9.27;;;5.68;;
32918;SDS011;19280;42.646;21.150;2022-07-24T10:52:31;6.95;;;5.22;;
32918;SDS011;19280;42.646;21.150;2022-07-24T10:57:53;11.18;;;5.25;;
32918;SDS011;19280;42.646;21.150;2022-07-24T11:01:26;8.77;;;5.35;;
32918;SDS011;19280;42.646;21.150;2022-07-24T11:03:22;6.68;;;5.05;;
32918;SDS011;19280;42.646;21.150;2022-07-24T11:06:09;11.65;;;5.60;;
32918;SDS011;19280;42.646;21.150;2022-07-24T11:08:37;9.18;;;5.25;;
32918;SDS011;19280;42.646;21.150;2022-07-24T11:11:06;10.68;;;5.43;;
32918;SDS011;19280;42.646;21.150;2022-07-24T11:26:51;6.35;;;5.20;;
32918;SDS011;19280;42.646;21.150;2022-07-24T11:29:23;12.00;;;6.30;;
32918;SDS011;19280;42.646;21.150;2022-07-24T11:31:57;9.43;;;5.30;;
32918;SDS011;19280;42.646;21.150;2022-07-24T11:34:24;9.30;;;5.05;;
32918;SDS011;19280;42.646;21.150;2022-07-24T11:36:52;6.63;;;5.22;;
32918;SDS011;19280;42.646;21.150;2022-07-24T11:39:26;7.97;;;5.18;;
32918;SDS011;19280;42.646;21.150;2022-07-24T11:41:53;10.57;;;5.85;;
32918;SDS011;19280;42.646;21.150;2022-07-24T11:44:31;10.57;;;5.78;;
32918;SDS011;19280;42.646;21.150;2022-07-24T11:46:59;9.60;;;5.80;;
32918;SDS011;19280;42.646;21.150;2022-07-24T11:49:27;10.70;;;6.47;;
32918;SDS011;19280;42.646;21.150;2022-07-24T11:51:55;14.35;;;6.43;;
32918;SDS011;19280;42.646;21.150;2022-07-24T11:54:25;9.38;;;5.35;;
32918;SDS011;19280;42.646;21.150;2022-07-24T11:59:21;8.00;;;5.80;;
32918;SDS011;19280;42.646;21.150;2022-07-24T12:01:48;8.73;;;5.45;;
32918;SDS011;19280;42.646;21.150;2022-07-24T12:04:20;9.02;;;5.80;;
32918;SDS011;19280;42.646;21.150;2022-07-24T12:06:48;8.30;;;5.57;;
32918;SDS011;19280;42.646;21.150;2022-07-24T12:09:15;12.57;;;5.60;;
32918;SDS011;19280;42.646;21.150;2022-07-24T12:11:41;12.18;;;5.50;;
32918;SDS011;19280;42.646;21.150;2022-07-24T12:14:16;8.20;;;5.15;;
32918;SDS011;19280;42.646;21.150;2022-07-24T12:16:43;8.48;;;5.20;;
32918;SDS011;19280;42.646;21.150;2022-07-24T12:19:12;9.55;;;5.68;;
32918;SDS011;19280;42.646;21.150;2022-07-24T12:21:40;9.07;;;5.53;;
32918;SDS011;19280;42.646;21.150;2022-07-24T12:24:07;8.50;;;5.15;;
32918;SDS011;19280;42.646;21.150;2022-07-24T12:26:44;8.30;;;5.28;;
32918;SDS011;19280;42.646;21.150;2022-07-24T12:29:13;6.00;;;5.25;;
32918;SDS011;19280;42.646;21.150;2022-07-24T12:31:40;14.00;;;5.82;;
32918;SDS011;19280;42.646;21.150;2022-07-24T12:34:07;8.57;;;5.43;;
32918;SDS011;19280;42.646;21.150;2022-07-24T12:36:35;8.90;;;5.57;;
32918;SDS011;19280;42.646;21.150;2022-07-24T12:39:03;11.90;;;5.30;;
32918;SDS011;19280;42.646;21.150;2022-07-24T12:41:31;8.32;;;5.65;;
32918;SDS011;19280;42.646;21.150;2022-07-24T12:44:00;7.20;;;5.30;;
32918;SDS011;19280;42.646;21.150;2022-07-24T12:46:31;6.70;;;5.10;;
32918;SDS011;19280;42.646;21.150;2022-07-24T12:49:02;9.73;;;6.45;;
32918;SDS011;19280;42.646;21.150;2022-07-24T12:54:17;8.68;;;5.88;;
32918;SDS011;19280;42.646;21.150;2022-07-24T12:56:45;7.85;;;5.80;;
32918;SDS011;19280;42.646;21.150;2022-07-24T12:59:23;10.93;;;6.43;;
32918;SDS011;19280;42.646;21.150;2022-07-24T13:01:51;11.20;;;6.85;;
32918;SDS011;19280;42.646;21.150;2022-07-24T13:04:19;7.38;;;5.00;;
32918;SDS011;19280;42.646;21.150;2022-07-24T13:06:47;7.68;;;5.63;;
32918;SDS011;19280;42.646;21.150;2022-07-24T13:09:15;11.52;;;5.90;;
32918;SDS011;19280;42.646;21.150;2022-07-24T13:11:43;9.80;;;5.75;;
32918;SDS011;19280;42.646;21.150;2022-07-24T13:14:10;7.80;;;5.20;;
32918;SDS011;19280;42.646;21.150;2022-07-24T13:16:38;10.85;;;5.82;;
32918;SDS011;19280;42.646;21.150;2022-07-24T13:19:06;9.60;;;5.30;;
32918;SDS011;19280;42.646;21.150;2022-07-24T13:21:34;8.88;;;5.22;;
32918;SDS011;19280;42.646;21.150;2022-07-24T13:24:02;10.23;;;5.25;;
32918;SDS011;19280;42.646;21.150;2022-07-24T13:26:29;8.40;;;5.57;;
32918;SDS011;19280;42.646;21.150;2022-07-24T13:28:56;11.30;;;5.88;;
32918;SDS011;19280;42.646;21.150;2022-07-24T13:31:23;19.15;;;6.25;;
32918;SDS011;19280;42.646;21.150;2022-07-24T13:33:51;11.35;;;6.13;;
32918;SDS011;19280;42.646;21.150;2022-07-24T13:36:18;13.35;;;5.90;;
32918;SDS011;19280;42.646;21.150;2022-07-24T13:38:46;26.17;;;6.40;;
32918;SDS011;19280;42.646;21.150;2022-07-24T13:41:13;39.53;;;7.40;;
32918;SDS011;19280;42.646;21.150;2022-07-24T13:43:42;29.48;;;7.43;;
32918;SDS011;19280;42.646;21.150;2022-07-24T13:46:09;12.73;;;6.03;;
32918;SDS011;19280;42.646;21.150;2022-07-24T13:48:36;10.10;;;6.22;;
32918;SDS011;19280;42.646;21.150;2022-07-24T13:51:03;11.15;;;6.60;;
32918;SDS011;19280;42.646;21.150;2022-07-24T13:53:30;10.90;;;6.38;;
32918;SDS011;19280;42.646;21.150;2022-07-24T13:55:56;16.77;;;6.50;;
32918;SDS011;19280;42.646;21.150;2022-07-24T13:58:23;20.33;;;7.57;;
32918;SDS011;19280;42.646;21.150;2022-07-24T14:00:50;13.32;;;6.57;;
32918;SDS011;19280;42.646;21.150;2022-07-24T14:03:17;13.60;;;6.45;;
32918;SDS011;19280;42.646;21.150;2022-07-24T14:05:44;20.20;;;7.47;;
32918;SDS011;19280;42.646;21.150;2022-07-24T14:08:10;17.60;;;6.97;;
32918;SDS011;19280;42.646;21.150;2022-07-24T14:10:37;18.65;;;6.93;;
32918;SDS011;19280;42.646;21.150;2022-07-24T14:13:05;13.93;;;7.03;;
32918;SDS011;19280;42.646;21.150;2022-07-24T14:15:32;16.48;;;7.38;;
32918;SDS011;19280;42.646;21.150;2022-07-24T14:17:59;22.23;;;7.93;;
32918;SDS011;19280;42.646;21.150;2022-07-24T14:20:26;16.35;;;8.02;;
32918;SDS011;19280;42.646;21.150;2022-07-24T14:22:53;19.80;;;11.45;;
32918;SDS011;19280;42.646;21.150;2022-07-24T14:25:19;19.08;;;11.65;;
32918;SDS011;19280;42.646;21.150;2022-07-24T14:27:46;26.50;;;11.98;;
32918;SDS011;19280;42.646;21.150;2022-07-24T14:30:13;16.70;;;12.80;;
32918;SDS011;19280;42.646;21.150;2022-07-24T14:32:40;17.00;;;13.75;;
32918;SDS011;19280;42.646;21.150;2022-07-24T14:35:08;17.52;;;14.57;;
32918;SDS011;19280;42.646;21.150;2022-07-24T14:37:36;26.48;;;14.23;;
32918;SDS011;19280;42.646;21.150;2022-07-24T14:40:05;19.20;;;14.15;;
32918;SDS011;19280;42.646;21.150;2022-07-24T14:42:32;19.85;;;14.73;;
32918;SDS011;19280;42.646;21.150;2022-07-24T14:44:59;21.08;;;14.75;;
32918;SDS011;19280;42.646;21.150;2022-07-24T14:47:32;18.60;;;15.57;;
32918;SDS011;19280;42.646;21.150;2022-07-24T14:49:59;47.70;;;19.05;;
32918;SDS011;19280;42.646;21.150;2022-07-24T14:52:26;49.35;;;21.42;;
32918;SDS011;19280;42.646;21.150;2022-07-24T14:54:53;38.80;;;22.63;;
32918;SDS011;19280;42.646;21.150;2022-07-24T14:57:21;38.70;;;23.77;;
32918;SDS011;19280;42.646;21.150;2022-07-24T14:59:48;47.65;;;26.42;;
32918;SDS011;19280;42.646;21.150;2022-07-24T15:02:15;36.40;;;27.67;;
32918;SDS011;19280;42.646;21.150;2022-07-24T15:04:41;51.38;;;30.45;;
32918;SDS011;19280;42.646;21.150;2022-07-24T15:07:09;45.00;;;27.20;;
32918;SDS011;19280;42.646;21.150;2022-07-24T15:09:36;39.42;;;29.00;;
32918;SDS011;19280;42.646;21.150;2022-07-24T15:12:04;34.08;;;27.50;;
32918;SDS011;19280;42.646;21.150;2022-07-24T15:14:31;33.50;;;26.35;;